Time;durP1;ratioP1;P1;durP2;ratioP2;P2;SDS_P1;SDS_P2;PMS_P1;PMS_P2;Temp;Humidity;BMP_temperature;BMP_pressure;BME280_temperature;BME280_humidity;BME280_pressure;Samples;Min_cycle;Max_cycle;Signal;HPM_P1;HPM_P2
2021/01/01 00:01:06;;;;;;;65.07;34.28;;;2.80;96.40;;;;;;5022722;28;20034;-75
2021/01/01 00:03:31;;;;;;;143.52;68.75;;;2.80;96.30;;;;;;5005090;28;20037;-75
2021/01/01 00:05:57;;;;;;;145.85;67.20;;;2.70;96.20;;;;;;5005847;28;20101;-75
2021/01/01 00:08:22;;;;;;;132.18;60.15;;;2.70;96.20;;;;;;5021898;28;20029;-75
2021/01/01 00:10:49;;;;;;;136.50;63.38;;;2.70;96.40;;;;;;5022123;28;20053;-75
2021/01/01 00:13:15;;;;;;;83.40;42.80;;;2.70;96.50;;;;;;5021802;28;20034;-75
2021/01/01 00:15:40;;;;;;;139.13;65.35;;;2.60;96.40;;;;;;5004056;28;20048;-74
2021/01/01 00:18:06;;;;;;;171.25;76.85;;;2.70;96.40;;;;;;5005794;28;20018;-74
2021/01/01 00:20:35;;;;;;;166.18;76.57;;;2.70;96.30;;;;;;5003481;28;20520;-76
2021/01/01 00:23:00;;;;;;;166.32;74.75;;;2.60;96.30;;;;;;4990935;28;20029;-74
2021/01/01 00:25:26;;;;;;;174.57;80.05;;;2.60;96.40;;;;;;5022835;28;20029;-76
2021/01/01 00:27:51;;;;;;;181.02;80.72;;;2.60;96.60;;;;;;4990430;28;20034;-75
2021/01/01 00:30:18;;;;;;;181.13;83.40;;;2.70;96.60;;;;;;5004782;28;20099;-75
2021/01/01 00:32:43;;;;;;;183.35;90.53;;;2.60;96.60;;;;;;5023355;28;20030;-75
2021/01/01 00:35:10;;;;;;;194.90;87.97;;;2.50;96.70;;;;;;5004526;28;20033;-75
2021/01/01 00:37:37;;;;;;;172.68;78.47;;;2.60;96.80;;;;;;5021602;28;20037;-75
2021/01/01 00:40:04;;;;;;;183.63;84.40;;;2.50;96.80;;;;;;4992435;28;20033;-75
2021/01/01 00:42:30;;;;;;;169.90;76.47;;;2.60;96.90;;;;;;5022803;28;20038;-76
2021/01/01 00:44:55;;;;;;;162.48;72.60;;;2.60;96.90;;;;;;5006984;28;20032;-75
2021/01/01 00:47:21;;;;;;;172.05;75.45;;;2.60;96.90;;;;;;5022896;28;20433;-75
2021/01/01 00:49:46;;;;;;;165.70;73.88;;;2.60;96.90;;;;;;5023830;28;20025;-76
2021/01/01 00:52:12;;;;;;;170.85;76.13;;;2.60;96.90;;;;;;5006294;28;20093;-76
2021/01/01 00:54:37;;;;;;;184.10;82.85;;;2.60;96.90;;;;;;4998888;28;20086;-75
2021/01/01 00:57:03;;;;;;;170.65;77.80;;;2.60;96.90;;;;;;5006914;28;20431;-75
2021/01/01 00:59:28;;;;;;;169.35;76.88;;;2.60;96.90;;;;;;5008069;28;20486;-75
2021/01/01 01:01:55;;;;;;;170.38;76.13;;;2.60;96.90;;;;;;5022639;28;20037;-76
2021/01/01 01:04:21;;;;;;;153.00;69.93;;;2.60;97.00;;;;;;5007080;28;20393;-75
2021/01/01 01:06:46;;;;;;;96.80;44.28;;;2.70;96.90;;;;;;4995362;28;20037;-75
2021/01/01 01:09:12;;;;;;;157.10;70.47;;;2.70;96.80;;;;;;5005571;28;20180;-74
2021/01/01 01:11:37;;;;;;;178.50;79.43;;;2.70;96.60;;;;;;5021390;28;20064;-76
2021/01/01 01:14:03;;;;;;;189.48;78.82;;;2.70;96.60;;;;;;4992261;28;20437;-75
2021/01/01 01:16:30;;;;;;;182.85;78.97;;;2.70;96.70;;;;;;5006698;28;20486;-75
2021/01/01 01:18:56;;;;;;;196.30;85.47;;;2.70;96.70;;;;;;5006711;28;20029;-75
2021/01/01 01:21:21;;;;;;;213.63;99.20;;;2.60;96.70;;;;;;5021821;28;20044;-75
2021/01/01 01:23:47;;;;;;;196.15;86.75;;;2.60;96.70;;;;;;5023133;28;20512;-75
2021/01/01 01:26:13;;;;;;;206.35;93.70;;;2.60;96.90;;;;;;5004269;28;20021;-75
2021/01/01 01:28:38;;;;;;;205.35;92.60;;;2.60;96.80;;;;;;4987759;28;20036;-75
2021/01/01 01:31:04;;;;;;;185.07;85.25;;;2.60;96.80;;;;;;5004059;28;20029;-75
2021/01/01 01:33:31;;;;;;;211.77;92.88;;;2.60;96.90;;;;;;5021742;28;20037;-76
2021/01/01 01:35:57;;;;;;;210.85;91.60;;;2.60;96.90;;;;;;5020809;28;20104;-75
2021/01/01 01:38:23;;;;;;;190.90;81.47;;;2.60;97.00;;;;;;5005318;28;20061;-75
2021/01/01 01:40:48;;;;;;;191.23;85.60;;;2.50;96.90;;;;;;5005379;28;20498;-75
2021/01/01 01:43:14;;;;;;;182.48;79.90;;;2.50;97.20;;;;;;5004270;28;20524;-76
2021/01/01 01:45:39;;;;;;;161.65;72.15;;;2.50;96.90;;;;;;5005500;28;20029;-76
2021/01/01 01:48:05;;;;;;;158.95;72.70;;;2.50;97.00;;;;;;5004582;28;20029;-76
2021/01/01 01:50:31;;;;;;;148.23;64.10;;;2.50;97.00;;;;;;5006205;28;20033;-76
2021/01/01 01:52:56;;;;;;;137.98;62.15;;;2.50;97.00;;;;;;5003605;28;20030;-75
2021/01/01 01:55:22;;;;;;;137.93;61.15;;;2.50;96.80;;;;;;5019485;28;20037;-76
2021/01/01 01:57:47;;;;;;;149.20;64.75;;;2.60;96.80;;;;;;5021395;28;20033;-75
2021/01/01 02:02:45;;;;;;;121.72;55.03;;;2.50;97.00;;;;;;5003383;28;20497;-76
2021/01/01 02:05:13;;;;;;;137.10;60.35;;;2.50;96.70;;;;;;5004691;28;20087;-75
2021/01/01 02:07:38;;;;;;;118.55;52.08;;;2.50;96.70;;;;;;5002190;28;20038;-76
2021/01/01 02:10:04;;;;;;;113.32;51.67;;;2.50;96.90;;;;;;5019536;28;20036;-75
2021/01/01 02:12:30;;;;;;;117.55;49.55;;;2.40;96.90;;;;;;5003136;28;20052;-75
2021/01/01 02:14:55;;;;;;;109.40;47.65;;;2.40;97.00;;;;;;4991173;28;20116;-75
2021/01/01 02:17:21;;;;;;;107.07;49.35;;;2.40;97.00;;;;;;5008414;28;20037;-75
2021/01/01 02:19:46;;;;;;;99.10;47.08;;;2.40;97.10;;;;;;5024948;28;20120;-75
2021/01/01 02:22:12;;;;;;;95.40;45.92;;;2.40;97.10;;;;;;5025861;28;20503;-76
2021/01/01 02:24:38;;;;;;;97.25;45.15;;;2.40;97.10;;;;;;5008388;28;20160;-75
2021/01/01 02:27:03;;;;;;;95.60;40.78;;;2.30;97.00;;;;;;4992031;28;20195;-76
2021/01/01 02:29:29;;;;;;;87.30;40.42;;;2.30;97.00;;;;;;5008784;28;20632;-76
2021/01/01 02:31:54;;;;;;;92.15;41.28;;;2.30;96.90;;;;;;5024862;28;20034;-75
2021/01/01 02:34:20;;;;;;;80.60;35.72;;;2.30;97.00;;;;;;5008035;28;20021;-75
2021/01/01 02:36:45;;;;;;;81.20;36.85;;;2.30;96.90;;;;;;5032556;28;20548;-75
2021/01/01 02:39:13;;;;;;;86.93;36.80;;;2.30;96.90;;;;;;4993445;28;20489;-75
2021/01/01 02:41:38;;;;;;;75.03;32.58;;;2.30;97.10;;;;;;5021589;28;20041;-76
2021/01/01 02:44:04;;;;;;;72.38;32.00;;;2.30;96.80;;;;;;4992666;28;20051;-75
2021/01/01 02:46:30;;;;;;;75.43;34.67;;;2.30;96.80;;;;;;4991356;28;20453;-76
2021/01/01 02:48:55;;;;;;;78.43;34.90;;;2.30;96.70;;;;;;5023912;28;20037;-76
2021/01/01 02:51:21;;;;;;;71.50;32.42;;;2.30;96.60;;;;;;5023662;28;20088;-75
2021/01/01 02:53:46;;;;;;;74.22;33.03;;;2.30;96.80;;;;;;5023161;28;20213;-75
2021/01/01 02:56:12;;;;;;;71.80;31.73;;;2.30;96.60;;;;;;5022228;28;20413;-75
2021/01/01 02:58:37;;;;;;;63.08;31.02;;;2.40;96.60;;;;;;5023552;28;20124;-76
2021/01/01 03:01:03;;;;;;;58.08;27.65;;;2.30;96.50;;;;;;5008169;28;20080;-75
2021/01/01 03:03:28;;;;;;;66.32;30.45;;;2.30;96.60;;;;;;5007420;28;20033;-75
2021/01/01 03:05:54;;;;;;;69.95;29.00;;;2.20;96.50;;;;;;5006316;28;20084;-75
2021/01/01 03:08:19;;;;;;;59.33;28.45;;;2.20;96.60;;;;;;5005625;28;20029;-76
2021/01/01 03:10:45;;;;;;;58.17;27.55;;;2.20;96.60;;;;;;4991324;28;20025;-75
2021/01/01 03:13:10;;;;;;;62.97;28.85;;;2.20;96.60;;;;;;5024291;28;20062;-75
2021/01/01 03:15:36;;;;;;;63.55;28.05;;;2.20;96.70;;;;;;5005723;28;20112;-76
2021/01/01 03:18:01;;;;;;;58.70;26.90;;;2.20;96.70;;;;;;4991521;28;20037;-75
2021/01/01 03:20:27;;;;;;;64.22;30.08;;;2.20;96.70;;;;;;5003951;28;20084;-76
2021/01/01 03:22:52;;;;;;;61.65;27.00;;;2.20;96.60;;;;;;5023202;28;20401;-75
2021/01/01 03:25:18;;;;;;;65.93;29.98;;;2.20;96.60;;;;;;5021890;28;20033;-76
2021/01/01 03:27:44;;;;;;;64.32;29.60;;;2.20;96.70;;;;;;5051355;28;20120;-75
2021/01/01 03:30:10;;;;;;;69.22;29.27;;;2.20;96.70;;;;;;5009462;28;20052;-76
2021/01/01 03:32:36;;;;;;;62.05;28.73;;;2.30;96.80;;;;;;5039642;28;20096;-76
2021/01/01 03:35:02;;;;;;;63.72;27.95;;;2.30;96.70;;;;;;4991769;28;20037;-75
2021/01/01 03:37:27;;;;;;;54.92;25.13;;;2.30;96.70;;;;;;5024276;28;20095;-75
2021/01/01 03:39:54;;;;;;;74.22;30.73;;;2.30;96.60;;;;;;5007957;28;20087;-75
2021/01/01 03:42:19;;;;;;;69.30;30.33;;;2.30;96.60;;;;;;5023518;28;20033;-75
2021/01/01 03:44:45;;;;;;;57.00;26.98;;;2.30;96.80;;;;;;5005206;28;20036;-75
2021/01/01 03:47:10;;;;;;;66.60;29.00;;;2.30;97.10;;;;;;4991719;28;20401;-76
2021/01/01 03:49:36;;;;;;;58.22;27.77;;;2.30;96.70;;;;;;5020741;28;20087;-76
2021/01/01 03:52:02;;;;;;;61.63;28.92;;;2.30;96.60;;;;;;5008368;28;20040;-75
2021/01/01 03:54:27;;;;;;;69.60;31.00;;;2.30;96.60;;;;;;5021562;28;20040;-75
2021/01/01 03:56:53;;;;;;;64.63;29.77;;;2.30;96.50;;;;;;4990040;28;20061;-76
2021/01/01 03:59:18;;;;;;;65.38;30.25;;;2.30;96.60;;;;;;5020103;28;20528;-75
2021/01/01 04:01:44;;;;;;;63.08;29.42;;;2.30;96.80;;;;;;5020407;28;20036;-75
2021/01/01 04:04:09;;;;;;;62.78;30.33;;;2.30;96.70;;;;;;5006668;28;20033;-76
2021/01/01 04:06:35;;;;;;;54.05;25.92;;;2.30;96.60;;;;;;5032761;28;20030;-76
2021/01/01 04:09:00;;;;;;;49.17;22.35;;;2.30;96.70;;;;;;4991542;28;20079;-75
2021/01/01 04:11:26;;;;;;;50.95;24.20;;;2.40;96.60;;;;;;5022309;28;20121;-75
2021/01/01 04:13:51;;;;;;;54.53;23.95;;;2.50;96.40;;;;;;5036046;28;20034;-75
2021/01/01 04:16:17;;;;;;;58.60;27.95;;;2.50;96.40;;;;;;5005964;28;20037;-76
2021/01/01 04:18:42;;;;;;;57.80;24.48;;;2.50;96.30;;;;;;5018749;28;20022;-75
2021/01/01 04:21:08;;;;;;;68.38;31.23;;;2.50;96.40;;;;;;5019581;28;20112;-75
2021/01/01 04:23:34;;;;;;;69.68;30.13;;;2.40;96.10;;;;;;5022792;28;20033;-76
2021/01/01 04:26:00;;;;;;;66.30;28.35;;;2.30;96.30;;;;;;4990860;28;20041;-75
2021/01/01 04:28:26;;;;;;;65.30;30.17;;;2.30;96.40;;;;;;5005662;28;20033;-76
2021/01/01 04:30:51;;;;;;;58.78;26.33;;;2.30;96.70;;;;;;5034474;28;20039;-75
2021/01/01 04:33:17;;;;;;;67.93;28.23;;;2.30;96.60;;;;;;5005244;28;20131;-75
2021/01/01 04:35:42;;;;;;;66.68;28.90;;;2.30;96.60;;;;;;5006568;28;20463;-75
2021/01/01 04:38:08;;;;;;;59.50;27.70;;;2.30;96.60;;;;;;5006110;28;20630;-76
2021/01/01 04:40:33;;;;;;;43.40;21.20;;;2.30;96.70;;;;;;5006353;28;20967;-75
2021/01/01 04:42:59;;;;;;;54.88;23.30;;;2.30;96.70;;;;;;5006865;28;20555;-76
2021/01/01 04:45:25;;;;;;;57.00;26.20;;;2.30;96.60;;;;;;5024598;28;20029;-76
2021/01/01 04:47:50;;;;;;;50.10;22.58;;;2.30;96.50;;;;;;5035152;28;20037;-75
2021/01/01 04:50:16;;;;;;;54.58;23.95;;;2.30;96.60;;;;;;5022912;28;20128;-75
2021/01/01 04:52:41;;;;;;;49.30;21.58;;;2.40;96.40;;;;;;4990831;28;20025;-76
2021/01/01 04:55:07;;;;;;;57.35;24.50;;;2.50;96.30;;;;;;5006699;28;20443;-76
2021/01/01 04:57:33;;;;;;;44.53;20.45;;;2.50;96.20;;;;;;5022129;28;20121;-76
2021/01/01 04:59:58;;;;;;;58.67;25.77;;;2.40;96.20;;;;;;5005364;28;20033;-75
2021/01/01 05:02:24;;;;;;;44.88;22.75;;;2.50;96.20;;;;;;5021539;28;20042;-76
2021/01/01 05:04:49;;;;;;;64.95;27.80;;;2.40;96.20;;;;;;5003783;28;20053;-77
2021/01/01 05:07:19;;;;;;;50.20;21.90;;;2.40;96.20;;;;;;5005947;28;20025;-76
2021/01/01 05:09:45;;;;;;;62.67;28.45;;;2.40;96.30;;;;;;5019389;28;20441;-76
2021/01/01 05:12:11;;;;;;;53.78;21.75;;;2.40;96.20;;;;;;5022770;28;20065;-75
2021/01/01 05:14:37;;;;;;;45.92;21.50;;;2.40;96.10;;;;;;5022400;28;20488;-76
2021/01/01 05:17:02;;;;;;;63.95;28.25;;;2.40;96.10;;;;;;5005795;28;20478;-75
2021/01/01 05:19:54;;;;;;;60.10;27.80;;;2.40;96.10;;;;;;5021240;28;20029;-76
2021/01/01 05:22:20;;;;;;;46.40;22.85;;;2.30;96.00;;;;;;5016361;28;21617;-76
2021/01/01 05:24:46;;;;;;;50.65;23.90;;;2.30;96.30;;;;;;5020492;28;20071;-77
2021/01/01 05:27:16;;;;;;;58.53;27.13;;;2.30;96.30;;;;;;5006022;28;20026;-75
2021/01/01 05:29:43;;;;;;;51.17;23.95;;;2.30;96.20;;;;;;5020037;28;20030;-76
2021/01/01 05:32:09;;;;;;;54.13;25.48;;;2.30;96.30;;;;;;5021672;28;20117;-76
2021/01/01 05:34:44;;;;;;;48.30;21.20;;;2.30;96.30;;;;;;5005690;28;20124;-75
2021/01/01 05:37:10;;;;;;;57.10;25.75;;;2.30;96.20;;;;;;5020011;28;20037;-76
2021/01/01 05:39:35;;;;;;;48.85;23.08;;;2.20;96.20;;;;;;4990270;28;20026;-75
2021/01/01 05:42:01;;;;;;;50.20;24.00;;;2.30;96.30;;;;;;5005724;28;20055;-75
2021/01/01 05:44:28;;;;;;;54.05;24.33;;;2.20;96.30;;;;;;5004102;28;20037;-76
2021/01/01 05:46:56;;;;;;;58.90;26.15;;;2.20;96.30;;;;;;5021474;28;20116;-76
2021/01/01 05:49:42;;;;;;;43.83;20.00;;;2.20;96.30;;;;;;5024700;28;20566;-76
2021/01/01 05:52:21;;;;;;;37.30;17.05;;;2.20;96.20;;;;;;5024516;28;21828;-75
2021/01/01 05:54:49;;;;;;;49.80;24.02;;;2.20;96.30;;;;;;4992510;28;20033;-76
2021/01/01 05:57:15;;;;;;;45.50;20.23;;;2.20;96.30;;;;;;4993558;28;20042;-77
2021/01/01 05:59:47;;;;;;;60.53;28.67;;;2.30;96.30;;;;;;4991677;28;20029;-75
2021/01/01 06:02:13;;;;;;;46.35;21.73;;;2.20;96.00;;;;;;5006113;28;20033;-75
2021/01/01 06:04:39;;;;;;;49.05;24.60;;;2.30;96.30;;;;;;4989050;28;20086;-75
2021/01/01 06:07:06;;;;;;;49.63;23.77;;;2.30;96.10;;;;;;5004813;28;20087;-76
2021/01/01 06:09:33;;;;;;;44.38;20.95;;;2.30;96.20;;;;;;5001599;28;20346;-76
2021/01/01 06:11:59;;;;;;;47.63;20.63;;;2.30;96.10;;;;;;4991453;28;20064;-75
2021/01/01 06:14:45;;;;;;;44.95;22.00;;;2.30;96.10;;;;;;5023456;28;20413;-76
2021/01/01 06:17:10;;;;;;;47.28;22.70;;;2.40;95.90;;;;;;5002970;28;20045;-75
2021/01/01 06:19:43;;;;;;;42.05;19.05;;;2.40;95.80;;;;;;5024274;28;20436;-75
2021/01/01 06:22:15;;;;;;;57.33;24.70;;;2.30;95.90;;;;;;5006996;28;20040;-75
2021/01/01 06:24:45;;;;;;;41.90;19.58;;;2.30;95.90;;;;;;4992132;28;20038;-75
2021/01/01 06:27:12;;;;;;;37.65;18.48;;;2.40;95.90;;;;;;5004487;28;20056;-75
2021/01/01 06:29:37;;;;;;;43.03;20.95;;;2.50;95.80;;;;;;5025629;28;20033;-76
2021/01/01 06:32:03;;;;;;;42.47;19.65;;;2.50;95.70;;;;;;5007510;28;20029;-75
2021/01/01 06:34:29;;;;;;;39.92;20.58;;;2.50;95.60;;;;;;5006999;28;20312;-76
2021/01/01 06:36:55;;;;;;;42.33;20.23;;;2.50;95.50;;;;;;5007859;28;20485;-75
2021/01/01 06:39:40;;;;;;;42.65;19.98;;;2.50;95.60;;;;;;5024377;28;20109;-75
2021/01/01 06:42:06;;;;;;;60.58;28.15;;;2.40;95.70;;;;;;5033193;28;20033;-75
2021/01/01 06:44:41;;;;;;;54.50;24.88;;;2.30;95.70;;;;;;5024146;28;20044;-75
2021/01/01 06:47:08;;;;;;;48.53;23.00;;;2.20;95.80;;;;;;5010062;28;20034;-75
2021/01/01 06:49:36;;;;;;;44.22;21.88;;;2.20;96.00;;;;;;4991867;28;20040;-76
2021/01/01 06:52:15;;;;;;;50.53;22.77;;;2.20;96.00;;;;;;5008817;28;20037;-74
2021/01/01 06:54:59;;;;;;;51.65;24.98;;;2.30;95.90;;;;;;5007431;28;20059;-76
2021/01/01 06:57:27;;;;;;;41.92;20.05;;;2.30;95.70;;;;;;4990489;28;20430;-74
2021/01/01 06:59:53;;;;;;;53.05;25.00;;;2.30;95.80;;;;;;5005700;28;20037;-74
2021/01/01 07:02:21;;;;;;;42.90;21.05;;;2.30;95.80;;;;;;5021684;28;20124;-74
2021/01/01 07:04:50;;;;;;;48.28;20.85;;;2.30;95.90;;;;;;5023833;28;20030;-74
2021/01/01 07:07:43;;;;;;;68.60;29.40;;;2.20;95.70;;;;;;5005854;28;20548;-74
2021/01/01 07:10:13;;;;;;;55.17;22.52;;;2.20;95.80;;;;;;5029841;28;20028;-77
2021/01/01 07:12:39;;;;;;;45.92;21.63;;;2.20;95.90;;;;;;4991062;28;20270;-74
2021/01/01 07:15:31;;;;;;;57.92;26.27;;;2.30;95.90;;;;;;5007389;28;20091;-74
2021/01/01 07:17:57;;;;;;;56.75;25.85;;;2.30;95.70;;;;;;5022400;28;20120;-75
2021/01/01 07:20:22;;;;;;;56.38;27.85;;;2.30;95.80;;;;;;5005593;28;20108;-75
2021/01/01 07:22:57;;;;;;;46.05;23.05;;;2.10;95.90;;;;;;5032341;28;20123;-75
2021/01/01 07:25:35;;;;;;;62.55;27.52;;;2.00;95.90;;;;;;4988776;28;20485;-75
2021/01/01 07:28:03;;;;;;;53.00;26.08;;;2.10;95.90;;;;;;5020037;28;20034;-75
2021/01/01 07:30:35;;;;;;;46.85;23.08;;;2.00;95.90;;;;;;5005630;28;20362;-75
2021/01/01 07:33:01;;;;;;;55.47;25.85;;;2.10;96.10;;;;;;5001774;28;20034;-75
2021/01/01 07:35:27;;;;;;;55.10;23.05;;;2.10;95.90;;;;;;5021807;28;20034;-74
2021/01/01 07:37:53;;;;;;;69.55;29.40;;;2.20;96.00;;;;;;5009144;28;20041;-76
2021/01/01 07:40:19;;;;;;;57.35;27.25;;;2.10;95.70;;;;;;5005762;28;20190;-76
2021/01/01 07:42:51;;;;;;;55.40;25.23;;;2.10;95.90;;;;;;5004319;28;20128;-75
2021/01/01 07:45:17;;;;;;;58.45;27.02;;;2.10;96.00;;;;;;4988685;28;20044;-75
2021/01/01 07:47:46;;;;;;;63.60;28.17;;;2.10;95.90;;;;;;5022585;28;20407;-75
2021/01/01 07:50:16;;;;;;;48.42;22.35;;;2.10;96.20;;;;;;5020272;28;20127;-75
2021/01/01 07:52:42;;;;;;;52.33;25.55;;;2.20;95.90;;;;;;5004306;28;20036;-75
2021/01/01 07:55:08;;;;;;;58.38;27.45;;;2.20;95.80;;;;;;5002736;28;20038;-76
2021/01/01 07:57:35;;;;;;;55.92;24.85;;;2.10;96.20;;;;;;5004679;28;20042;-75
2021/01/01 08:00:01;;;;;;;65.28;29.52;;;2.10;96.00;;;;;;4989114;28;20037;-74
2021/01/01 08:02:26;;;;;;;55.30;25.92;;;2.10;95.80;;;;;;5020985;28;20040;-74
2021/01/01 08:04:52;;;;;;;61.45;27.75;;;2.10;96.00;;;;;;5021608;28;20044;-74
2021/01/01 08:07:23;;;;;;;51.42;24.15;;;2.10;96.00;;;;;;5021260;28;20025;-75
2021/01/01 08:09:49;;;;;;;52.88;23.00;;;2.20;95.90;;;;;;5022246;28;20515;-74
2021/01/01 08:12:14;;;;;;;48.50;22.38;;;2.20;95.80;;;;;;4996384;28;20029;-76
2021/01/01 08:14:53;;;;;;;68.00;30.20;;;2.20;95.80;;;;;;4985549;28;20034;-74
2021/01/01 08:17:24;;;;;;;55.65;24.80;;;2.20;95.80;;;;;;5000910;28;20034;-74
2021/01/01 08:19:50;;;;;;;55.22;22.23;;;2.20;96.10;;;;;;4990668;28;20029;-75
2021/01/01 08:22:20;;;;;;;61.25;28.42;;;2.30;95.80;;;;;;5020681;28;20041;-74
2021/01/01 08:24:45;;;;;;;51.05;23.40;;;2.30;95.80;;;;;;5002965;28;20481;-74
2021/01/01 08:27:11;;;;;;;63.88;29.40;;;2.20;95.80;;;;;;5003956;28;20084;-74
2021/01/01 08:29:36;;;;;;;66.25;30.40;;;2.20;95.90;;;;;;5004979;28;20044;-74
2021/01/01 08:32:02;;;;;;;59.63;26.95;;;2.20;96.00;;;;;;4989551;28;20033;-74
2021/01/01 08:34:28;;;;;;;67.22;31.25;;;2.20;96.10;;;;;;5018779;28;20041;-74
2021/01/01 08:36:53;;;;;;;49.55;24.67;;;2.20;95.90;;;;;;4989782;28;20555;-74
2021/01/01 08:39:19;;;;;;;67.82;29.33;;;2.30;95.90;;;;;;4989891;28;20030;-74
2021/01/01 08:41:46;;;;;;;54.72;26.77;;;2.40;95.90;;;;;;5004582;28;20091;-75
2021/01/01 08:44:12;;;;;;;56.60;25.52;;;2.40;95.80;;;;;;5005087;28;20434;-75
2021/01/01 08:46:37;;;;;;;56.08;26.45;;;2.40;95.70;;;;;;5004362;28;20029;-75
2021/01/01 08:49:19;;;;;;;51.25;24.27;;;2.50;95.70;;;;;;4991205;28;20377;-74
2021/01/01 08:51:45;;;;;;;82.05;36.55;;;2.50;95.60;;;;;;4992664;28;20037;-76
2021/01/01 08:54:31;;;;;;;70.65;33.67;;;2.40;95.70;;;;;;5005298;28;20029;-74
2021/01/01 08:57:01;;;;;;;73.78;31.25;;;2.50;95.90;;;;;;5003280;28;20036;-75
2021/01/01 08:59:27;;;;;;;68.53;31.13;;;2.40;95.90;;;;;;5005370;28;20034;-74
2021/01/01 09:01:53;;;;;;;73.40;32.65;;;2.40;96.00;;;;;;5003940;28;20287;-74
2021/01/01 09:04:23;;;;;;;81.20;35.15;;;2.50;96.00;;;;;;4988539;28;20060;-75
2021/01/01 09:07:07;;;;;;;69.22;31.88;;;2.40;96.00;;;;;;5006664;28;20547;-75
2021/01/01 09:09:33;;;;;;;84.25;35.95;;;2.50;95.90;;;;;;5019331;28;20036;-75
2021/01/01 09:12:19;;;;;;;61.28;25.23;;;2.50;95.90;;;;;;4989727;28;20401;-75
2021/01/01 09:14:54;;;;;;;83.32;37.10;;;2.60;95.90;;;;;;4996805;28;20670;-75
2021/01/01 09:17:24;;;;;;;61.45;26.98;;;2.60;95.90;;;;;;5016383;28;20049;-75
2021/01/01 09:20:05;;;;;;;73.78;31.63;;;2.60;96.00;;;;;;5019029;28;20053;-75
2021/01/01 09:22:34;;;;;;;72.85;30.15;;;2.70;95.90;;;;;;5034946;28;20037;-75
2021/01/01 09:25:20;;;;;;;62.80;27.38;;;2.70;96.00;;;;;;5002834;28;20065;-75
2021/01/01 09:27:46;;;;;;;80.22;32.13;;;2.70;95.80;;;;;;5035225;28;20034;-74
2021/01/01 09:30:13;;;;;;;69.80;33.67;;;2.80;95.80;;;;;;5004822;28;20381;-75
2021/01/01 09:32:48;;;;;;;95.50;43.65;;;2.80;95.60;;;;;;5013581;28;20337;-75
2021/01/01 09:35:14;;;;;;;76.57;33.45;;;2.80;95.70;;;;;;5020243;28;20409;-76
2021/01/01 09:38:02;;;;;;;71.07;31.58;;;2.90;95.60;;;;;;5035180;28;20041;-75
2021/01/01 09:40:30;;;;;;;80.72;32.85;;;2.90;95.70;;;;;;5032672;28;20029;-75
2021/01/01 09:42:56;;;;;;;75.97;31.95;;;3.00;95.60;;;;;;5016941;28;20540;-74
2021/01/01 09:45:22;;;;;;;79.90;35.00;;;3.00;95.60;;;;;;5002544;28;20034;-75
2021/01/01 09:47:47;;;;;;;77.35;34.33;;;3.00;95.50;;;;;;5015470;28;20041;-75
2021/01/01 09:50:13;;;;;;;87.90;36.92;;;3.00;95.50;;;;;;5019538;28;20037;-73
2021/01/01 09:52:38;;;;;;;99.90;44.45;;;3.10;95.60;;;;;;5019359;28;20057;-76
2021/01/01 09:55:05;;;;;;;90.35;38.28;;;3.10;95.70;;;;;;4989335;28;20076;-73
2021/01/01 09:57:30;;;;;;;87.95;37.90;;;3.10;95.70;;;;;;5004363;28;20069;-74
2021/01/01 09:59:56;;;;;;;88.03;37.13;;;3.10;95.60;;;;;;4988274;28;20057;-75
2021/01/01 10:02:22;;;;;;;75.63;34.58;;;3.10;95.70;;;;;;5019859;28;20037;-75
2021/01/01 10:04:48;;;;;;;101.60;40.05;;;3.10;95.80;;;;;;5001531;28;20033;-75
2021/01/01 10:07:15;;;;;;;93.85;44.35;;;3.10;95.80;;;;;;5003317;28;20041;-75
2021/01/01 10:09:41;;;;;;;79.05;38.35;;;3.10;95.80;;;;;;5035289;28;20040;-75
2021/01/01 10:12:07;;;;;;;92.10;41.35;;;3.10;95.70;;;;;;5015297;28;20025;-74
2021/01/01 10:14:33;;;;;;;89.32;40.13;;;3.20;95.70;;;;;;5018540;28;20362;-76
2021/01/01 10:16:58;;;;;;;125.97;54.35;;;3.20;95.70;;;;;;5020159;28;20495;-75
2021/01/01 10:19:24;;;;;;;98.18;43.72;;;3.20;95.80;;;;;;4982952;28;20042;-77
2021/01/01 10:21:49;;;;;;;101.55;46.28;;;3.20;95.70;;;;;;5002822;28;20058;-75
2021/01/01 10:24:15;;;;;;;111.25;48.50;;;3.20;95.70;;;;;;5002777;28;20484;-76
2021/01/01 10:26:40;;;;;;;114.47;47.00;;;3.20;95.80;;;;;;5004940;28;20098;-75
2021/01/01 10:29:06;;;;;;;94.93;40.35;;;3.30;95.70;;;;;;4997649;28;20052;-75
2021/01/01 10:31:31;;;;;;;94.55;42.33;;;3.20;95.70;;;;;;5018151;28;20396;-76
2021/01/01 10:33:57;;;;;;;110.88;45.17;;;3.30;95.80;;;;;;5017683;28;20030;-74
2021/01/01 10:36:23;;;;;;;99.00;38.17;;;3.20;95.80;;;;;;5018574;28;20118;-74
2021/01/01 10:38:48;;;;;;;98.47;44.55;;;3.30;95.80;;;;;;5014499;28;20057;-75
2021/01/01 10:41:15;;;;;;;107.32;45.88;;;3.30;96.00;;;;;;5008028;28;20109;-75
2021/01/01 10:43:40;;;;;;;107.63;49.97;;;3.30;96.00;;;;;;5022928;28;20385;-76
2021/01/01 10:46:06;;;;;;;101.47;48.53;;;3.40;96.00;;;;;;5004914;28;20026;-76
2021/01/01 10:48:32;;;;;;;105.20;47.42;;;3.40;96.10;;;;;;5007496;28;20030;-76
2021/01/01 10:50:57;;;;;;;109.72;48.00;;;3.40;96.10;;;;;;5020564;28;20037;-75
2021/01/01 10:53:23;;;;;;;97.32;44.53;;;3.40;96.10;;;;;;4997622;28;20028;-76
2021/01/01 10:55:50;;;;;;;93.30;41.05;;;3.50;96.20;;;;;;5006840;28;20021;-76
2021/01/01 10:58:23;;;;;;;106.10;45.50;;;3.50;96.30;;;;;;5024617;28;20497;-75
2021/01/01 11:00:51;;;;;;;103.40;44.78;;;3.50;96.20;;;;;;5006344;28;20037;-76
2021/01/01 11:03:16;;;;;;;98.20;39.33;;;3.50;96.20;;;;;;4989396;28;20038;-75
2021/01/01 11:05:42;;;;;;;105.70;48.38;;;3.50;96.20;;;;;;5037894;28;20029;-75
2021/01/01 11:08:07;;;;;;;111.15;48.15;;;3.60;96.40;;;;;;5039400;28;20033;-75
2021/01/01 11:10:33;;;;;;;76.97;34.13;;;3.60;96.40;;;;;;5004790;28;20033;-76
2021/01/01 11:13:00;;;;;;;113.18;49.47;;;3.60;96.30;;;;;;4989603;28;20026;-76
2021/01/01 12:26:38;;;;;;;94.88;36.95;;;4.20;97.20;;;;;;5020257;28;20040;-75
2021/01/01 12:29:04;;;;;;;90.47;41.17;;;4.50;97.20;;;;;;5007181;28;20018;-75
2021/01/01 12:31:30;;;;;;;86.38;38.42;;;4.70;97.30;;;;;;5007331;28;20034;-76
2021/01/01 12:33:56;;;;;;;79.57;33.50;;;4.60;97.10;;;;;;4990470;28;20025;-75
2021/01/01 12:36:22;;;;;;;90.15;39.08;;;4.60;97.00;;;;;;5016158;28;20532;-75
2021/01/01 12:38:47;;;;;;;86.05;38.42;;;4.60;96.80;;;;;;4989022;28;20148;-75
2021/01/01 12:41:13;;;;;;;80.15;35.13;;;4.70;97.10;;;;;;5021908;28;20037;-76
2021/01/01 12:43:38;;;;;;;84.13;36.85;;;4.80;97.10;;;;;;5001493;28;20034;-75
2021/01/01 12:46:04;;;;;;;80.00;34.75;;;4.80;97.00;;;;;;4991028;28;20049;-75
2021/01/01 12:48:29;;;;;;;79.55;35.78;;;4.80;96.70;;;;;;5002213;28;20041;-75
2021/01/01 12:50:56;;;;;;;84.45;37.25;;;4.80;96.90;;;;;;4990280;28;20453;-75
2021/01/01 12:53:21;;;;;;;76.28;31.73;;;4.80;97.00;;;;;;5020514;28;20022;-75
2021/01/01 12:55:47;;;;;;;73.95;33.05;;;4.90;96.80;;;;;;5018368;28;21120;-74
2021/01/01 12:58:12;;;;;;;77.45;33.10;;;4.90;96.90;;;;;;4989565;28;20076;-75
2021/01/01 13:00:38;;;;;;;77.53;32.75;;;4.90;97.00;;;;;;5016356;28;20440;-75
2021/01/01 13:03:04;;;;;;;64.22;31.98;;;4.90;97.00;;;;;;5015740;28;20057;-75
2021/01/01 13:05:29;;;;;;;65.50;30.05;;;4.80;96.70;;;;;;5001744;28;20092;-76
2021/01/01 13:07:55;;;;;;;61.65;30.52;;;4.70;96.80;;;;;;5021058;28;20033;-76
2021/01/01 13:10:21;;;;;;;70.72;31.75;;;4.80;96.90;;;;;;5032139;28;20033;-75
2021/01/01 13:12:46;;;;;;;88.53;36.35;;;4.80;96.90;;;;;;4995814;28;20030;-76
2021/01/01 13:15:12;;;;;;;73.70;32.58;;;4.80;96.90;;;;;;5021072;28;20095;-75
2021/01/01 13:17:37;;;;;;;61.97;27.30;;;4.60;97.00;;;;;;5020185;28;21330;-75
2021/01/01 13:20:04;;;;;;;72.32;29.58;;;4.60;97.20;;;;;;5021580;28;20045;-75
2021/01/01 13:22:30;;;;;;;83.97;33.40;;;4.70;97.10;;;;;;4987820;28;20042;-76
2021/01/01 13:24:55;;;;;;;75.80;33.25;;;4.80;97.30;;;;;;5002095;28;20551;-75
2021/01/01 13:27:25;;;;;;;72.22;30.08;;;4.90;97.10;;;;;;5021695;28;20037;-75
2021/01/01 13:29:51;;;;;;;67.82;31.35;;;4.90;96.90;;;;;;5007449;28;20132;-75
2021/01/01 13:32:18;;;;;;;36.65;15.82;;;4.90;96.90;;;;;;5019830;28;20509;-75
2021/01/01 13:34:43;;;;;;;54.92;25.25;;;5.10;96.80;;;;;;5019431;28;20026;-76
2021/01/01 13:37:09;;;;;;;38.78;16.73;;;5.20;96.50;;;;;;5001629;28;20476;-75
2021/01/01 13:39:34;;;;;;;48.03;20.77;;;5.20;96.50;;;;;;5000960;28;20429;-75
2021/01/01 13:42:13;;;;;;;48.83;23.67;;;5.30;96.50;;;;;;4987511;28;20216;-75
2021/01/01 13:44:39;;;;;;;53.70;25.63;;;5.30;96.60;;;;;;5010423;28;20064;-76
2021/01/01 13:47:05;;;;;;;55.17;24.05;;;5.40;96.40;;;;;;5014714;28;20042;-75
2021/01/01 13:49:30;;;;;;;55.40;27.05;;;5.40;96.70;;;;;;5016274;28;20049;-75